createdAt,value
2018-05-26T00:05:02.356Z,21.70
2018-05-26T00:10:05.612Z,21.80
2018-05-26T00:15:08.895Z,22.00
2018-05-26T00:20:12.143Z,21.80
2018-05-26T00:25:16.183Z,21.40
2018-05-26T00:30:19.567Z,21.30
2018-05-26T00:35:23.582Z,21.60
2018-05-26T00:40:26.843Z,21.30
2018-05-26T00:45:30.123Z,21.30
2018-05-26T00:50:34.149Z,21.30
2018-05-26T00:55:37.430Z,21.20
2018-05-26T01:00:40.678Z,21.50
2018-05-26T01:05:43.947Z,21.60
2018-05-26T01:10:47.203Z,21.60
2018-05-26T01:15:50.466Z,21.70
2018-05-26T01:20:54.544Z,21.60
2018-05-26T01:25:57.794Z,21.70
2018-05-26T01:31:01.112Z,21.70
2018-05-26T01:36:04.384Z,21.60
2018-05-26T01:41:07.641Z,21.60
2018-05-26T01:46:10.943Z,21.50
2018-05-26T01:51:14.192Z,21.40
2018-05-26T01:56:17.458Z,21.40
2018-05-26T02:01:20.708Z,21.30
2018-05-26T02:06:23.964Z,21.30
2018-05-26T02:11:27.223Z,21.10
2018-05-26T02:16:30.490Z,20.70
2018-05-26T02:21:34.508Z,20.40
2018-05-26T02:26:37.762Z,20.50
2018-05-26T02:31:41.176Z,20.70
2018-05-26T02:36:44.434Z,20.90
2018-05-26T02:41:48.587Z,20.90
2018-05-26T02:46:52.623Z,21.00
2018-05-26T02:51:55.924Z,20.90
2018-05-26T02:56:59.953Z,19.80
2018-05-26T03:02:03.218Z,19.70
2018-05-26T03:07:12.980Z,19.60
2018-05-26T03:12:21.940Z,19.20
2018-05-26T03:17:40.472Z,19.00
2018-05-26T03:22:43.738Z,19.30
2018-05-26T03:27:47.002Z,19.20
2018-05-26T03:32:50.263Z,19.20
2018-05-26T03:37:56.359Z,19.20
2018-05-26T03:42:59.623Z,19.00
2018-05-26T03:48:02.875Z,19.10
2018-05-26T03:53:06.138Z,19.20
2018-05-26T03:58:21.796Z,19.00
2018-05-26T04:03:25.059Z,19.00
2018-05-26T04:08:28.336Z,18.80
2018-05-26T04:13:31.586Z,19.10
2018-05-26T04:18:35.666Z,19.60
2018-05-26T04:23:38.935Z,19.50
2018-05-26T04:28:42.222Z,19.80
2018-05-26T04:33:45.500Z,19.80
2018-05-26T04:38:48.763Z,19.80
2018-05-26T04:43:52.016Z,20.10
2018-05-26T04:48:55.270Z,20.10
2018-05-26T04:53:58.532Z,19.90
2018-05-26T04:59:01.798Z,19.90
2018-05-26T05:04:05.054Z,20.00
2018-05-26T05:09:08.318Z,20.30
2018-05-26T05:14:11.585Z,20.50
2018-05-26T05:19:15.624Z,20.80
2018-05-26T05:24:18.880Z,20.70
2018-05-26T05:29:22.134Z,21.20
2018-05-26T05:34:25.399Z,21.90
2018-05-26T05:39:28.654Z,22.40
2018-05-26T05:44:31.903Z,22.80
2018-05-26T05:49:35.146Z,23.20
2018-05-26T05:54:39.383Z,24.20
2018-05-26T05:59:42.639Z,24.10
2018-05-26T06:04:45.887Z,24.80
2018-05-26T06:09:49.215Z,25.20
2018-05-26T06:14:53.352Z,25.60
2018-05-26T06:19:56.551Z,25.60
2018-05-26T06:25:00.782Z,26.10
2018-05-26T06:30:05.729Z,26.60
2018-05-26T06:35:09.052Z,26.50
2018-05-26T06:40:12.303Z,27.30
2018-05-26T06:45:15.582Z,27.10
2018-05-26T06:50:19.571Z,28.10
2018-05-26T06:55:23.595Z,28.50
2018-05-26T07:00:26.858Z,28.40
2018-05-26T07:05:30.160Z,29.00
2018-05-26T07:10:33.419Z,29.60
2018-05-26T07:15:36.663Z,30.30
2018-05-26T07:20:39.925Z,30.60
2018-05-26T07:25:43.191Z,30.60
2018-05-26T07:30:46.443Z,31.10
2018-05-26T07:35:50.505Z,32.30
2018-05-26T07:40:54.520Z,32.70
2018-05-26T07:45:57.772Z,32.70
2018-05-26T07:51:01.800Z,33.90
2018-05-26T07:56:05.065Z,33.80
2018-05-26T08:01:09.102Z,33.80
2018-05-26T08:06:12.364Z,33.80
2018-05-26T08:11:15.662Z,33.60
2018-05-26T08:16:20.446Z,32.70
2018-05-26T08:21:24.531Z,32.60
2018-05-26T08:26:27.754Z,31.30
2018-05-26T08:31:31.036Z,33.50
2018-05-26T08:36:34.307Z,35.20
2018-05-26T08:41:37.568Z,34.50
2018-05-26T08:46:40.823Z,32.50
2018-05-26T08:51:44.115Z,31.50
2018-05-26T08:56:48.191Z,34.30
2018-05-26T09:01:51.591Z,34.20
2018-05-26T09:06:55.127Z,33.40
2018-05-26T09:11:58.637Z,35.00
2018-05-26T09:17:01.908Z,33.80
2018-05-26T09:22:05.175Z,31.70
2018-05-26T09:27:08.542Z,35.00
2018-05-26T09:32:11.800Z,36.80
2018-05-26T09:37:15.111Z,37.20
2018-05-26T09:42:18.365Z,33.40
2018-05-26T09:47:21.612Z,36.80
2018-05-26T09:52:24.859Z,37.80
2018-05-26T09:57:28.118Z,38.50
2018-05-26T10:02:31.360Z,36.90
2018-05-26T10:07:35.480Z,34.30
2018-05-26T10:12:38.754Z,36.70
2018-05-26T10:17:41.997Z,38.00
2018-05-26T10:22:45.243Z,32.40
2018-05-26T10:27:48.492Z,34.30
2018-05-26T10:32:51.752Z,37.40
2018-05-26T10:37:55.063Z,38.60
2018-05-26T10:42:58.317Z,34.70
2018-05-26T10:48:01.820Z,32.80
2018-05-26T10:53:05.075Z,34.70
2018-05-26T10:58:09.137Z,38.90
2018-05-26T11:03:12.379Z,38.70
2018-05-26T11:08:15.637Z,36.90
2018-05-26T11:13:18.887Z,36.60
2018-05-26T11:18:22.736Z,34.30
2018-05-26T11:23:26.807Z,38.60
2018-05-26T11:28:30.025Z,38.50
2018-05-26T11:33:33.275Z,39.40
2018-05-26T11:38:36.617Z,34.70
2018-05-26T11:43:39.893Z,36.20
2018-05-26T11:48:43.131Z,36.70
2018-05-26T11:53:47.267Z,37.70
2018-05-26T11:58:50.518Z,36.00
2018-05-26T12:03:53.765Z,38.90
2018-05-26T12:08:57.035Z,40.80
2018-05-26T12:14:00.275Z,39.70
2018-05-26T12:19:03.517Z,35.10
2018-05-26T12:24:06.771Z,38.70
2018-05-26T12:29:10.035Z,35.10
2018-05-26T12:34:14.263Z,38.80
2018-05-26T12:39:17.520Z,40.70
2018-05-26T12:44:20.769Z,39.30
2018-05-26T12:49:24.019Z,36.90
2018-05-26T12:54:28.063Z,36.00
2018-05-26T12:59:32.103Z,36.70
2018-05-26T13:04:36.131Z,35.20
2018-05-26T13:09:40.139Z,36.90
2018-05-26T13:14:43.388Z,36.70
2018-05-26T13:19:46.646Z,39.00
2018-05-26T13:24:49.895Z,39.50
2018-05-26T13:29:53.141Z,41.10
2018-05-26T13:34:56.412Z,39.10
2018-05-26T13:39:59.940Z,40.60
2018-05-26T13:45:03.204Z,38.00
2018-05-26T13:50:06.451Z,35.00
2018-05-26T13:55:09.778Z,34.70
2018-05-26T14:00:13.878Z,34.80
2018-05-26T14:05:17.123Z,36.50
2018-05-26T14:10:20.371Z,37.30
2018-05-26T14:15:28.698Z,37.80
2018-05-26T14:20:32.713Z,37.90
2018-05-26T14:25:36.731Z,38.20
2018-05-26T14:30:39.982Z,38.10
2018-05-26T14:35:43.235Z,36.40
2018-05-26T14:40:46.499Z,36.50
2018-05-26T14:45:49.751Z,37.10
2018-05-26T14:50:53.899Z,34.50
2018-05-26T14:55:57.154Z,35.40
2018-05-26T15:01:00.403Z,37.30
2018-05-26T15:06:03.665Z,39.20
2018-05-26T15:11:06.910Z,39.40
2018-05-26T15:16:10.179Z,37.60
2018-05-26T15:21:13.430Z,34.70
2018-05-26T15:26:17.479Z,35.30
2018-05-26T15:31:20.741Z,36.70
2018-05-26T15:36:24.924Z,35.70
2018-05-26T15:41:28.246Z,35.70
2018-05-26T15:46:31.500Z,34.30
2018-05-26T15:51:34.758Z,34.10
2018-05-26T15:56:38.774Z,34.60
2018-05-26T16:01:42.026Z,34.60
2018-05-26T16:06:45.283Z,33.20
2018-05-26T16:11:49.310Z,32.80
2018-05-26T16:16:52.571Z,32.80
2018-05-26T16:21:55.826Z,32.80
2018-05-26T16:26:59.075Z,32.40
2018-05-26T16:32:02.326Z,32.30
2018-05-26T16:37:05.572Z,32.00
2018-05-26T16:42:09.650Z,32.00
2018-05-26T16:47:12.906Z,31.80
2018-05-26T16:52:16.158Z,31.20
2018-05-26T16:57:21.361Z,30.90
2018-05-26T17:02:24.631Z,30.80
2018-05-26T17:07:27.884Z,30.40
2018-05-26T17:12:31.143Z,30.50
2018-05-26T17:17:34.387Z,30.50
2018-05-26T17:22:37.670Z,30.30
2018-05-26T17:27:40.914Z,30.10
2018-05-26T17:32:44.175Z,30.20
2018-05-26T17:37:47.431Z,30.30
2018-05-26T17:42:51.034Z,30.00
2018-05-26T17:47:55.059Z,30.00
2018-05-26T17:52:58.331Z,29.90
2018-05-26T17:58:01.603Z,30.10
2018-05-26T18:03:05.855Z,29.80
2018-05-26T18:08:09.122Z,29.60
2018-05-26T18:13:13.123Z,27.70
2018-05-26T18:18:16.371Z,29.70
2018-05-26T18:23:20.399Z,29.50
2018-05-26T18:28:23.656Z,29.30
2018-05-26T18:33:26.935Z,28.70
2018-05-26T18:38:30.203Z,28.70
2018-05-26T18:43:33.530Z,28.50
2018-05-26T18:48:36.831Z,28.20
2018-05-26T18:53:40.079Z,28.10
2018-05-26T18:58:43.339Z,27.70
2018-05-26T19:03:47.362Z,27.50
2018-05-26T19:08:50.631Z,27.50
2018-05-26T19:13:53.887Z,27.60
2018-05-26T19:18:57.159Z,27.50
2018-05-26T19:24:00.436Z,27.30
2018-05-26T19:29:03.683Z,27.30
2018-05-26T19:34:06.956Z,27.00
2018-05-26T19:39:10.238Z,26.90
2018-05-26T19:44:13.559Z,27.10
2018-05-26T19:49:16.817Z,26.80
2018-05-26T19:54:20.063Z,26.60
2018-05-26T19:59:23.331Z,26.00
2018-05-26T20:04:26.604Z,26.00
2018-05-26T20:09:29.870Z,26.10
2018-05-26T20:14:33.130Z,25.80
2018-05-26T20:19:40.685Z,25.70
2018-05-26T20:24:44.764Z,25.60
2018-05-26T20:29:48.015Z,25.30
2018-05-26T20:34:52.059Z,25.30
2018-05-26T20:39:55.319Z,25.30
2018-05-26T20:44:58.584Z,25.50
2018-05-26T20:50:01.914Z,25.00
2018-05-26T20:55:05.148Z,24.70
2018-05-26T21:00:08.419Z,24.90
2018-05-26T21:05:11.687Z,24.90
2018-05-26T21:10:15.732Z,24.70
2018-05-26T21:15:18.991Z,24.70
2018-05-26T21:20:23.155Z,24.40
2018-05-26T21:25:27.179Z,24.30
2018-05-26T21:30:31.231Z,24.30
2018-05-26T21:35:34.503Z,24.20
2018-05-26T21:40:37.742Z,24.00
2018-05-26T21:45:41.058Z,23.70
2018-05-26T21:50:44.389Z,23.90
2018-05-26T21:55:47.667Z,23.80
2018-05-26T22:00:50.931Z,23.60
2018-05-26T22:05:54.190Z,23.40
2018-05-26T22:10:57.460Z,23.40
2018-05-26T22:16:00.824Z,23.30
2018-05-26T22:21:04.118Z,23.10
2018-05-26T22:26:07.371Z,23.30
2018-05-26T22:31:10.652Z,23.20
2018-05-26T22:36:13.908Z,23.00
2018-05-26T22:41:17.179Z,23.20
2018-05-26T22:46:20.503Z,23.30
2018-05-26T22:51:25.426Z,23.10
2018-05-26T22:56:30.090Z,23.30
2018-05-26T23:01:33.535Z,23.30
2018-05-26T23:06:36.791Z,23.30
2018-05-26T23:11:42.987Z,23.00
2018-05-26T23:16:46.918Z,23.00
2018-05-26T23:21:50.134Z,23.10
2018-05-26T23:26:54.170Z,22.90
2018-05-26T23:31:57.418Z,22.80
2018-05-26T23:37:00.687Z,22.60
2018-05-26T23:42:04.703Z,22.90
2018-05-26T23:47:08.742Z,22.90
2018-05-26T23:52:13.936Z,22.60
2018-05-26T23:57:17.223Z,22.50
